createdAt,value
2024-01-11T00:01:25.360Z,29.97
2024-01-11T00:03:53.353Z,29.20
2024-01-11T00:06:21.449Z,30.57
2024-01-11T00:08:49.418Z,30.90
2024-01-11T00:11:18.581Z,30.50
2024-01-11T00:13:48.078Z,32.97
2024-01-11T00:16:16.302Z,31.40
2024-01-11T00:18:46.111Z,30.70
2024-01-11T00:21:14.061Z,31.07
2024-01-11T00:23:41.993Z,32.73
2024-01-11T00:26:10.014Z,32.43
2024-01-11T00:28:37.809Z,31.03
2024-01-11T00:31:07.088Z,31.40
2024-01-11T00:33:35.093Z,31.90
2024-01-11T00:36:02.913Z,32.97
2024-01-11T00:38:30.785Z,32.40
2024-01-11T00:40:58.838Z,29.77
2024-01-11T00:43:26.801Z,31.97
2024-01-11T00:45:54.544Z,30.60
2024-01-11T00:48:23.909Z,31.37
2024-01-11T00:50:51.835Z,30.03
2024-01-11T00:53:19.650Z,33.03
2024-01-11T00:55:47.471Z,32.47
2024-01-11T00:58:15.437Z,31.30
2024-01-11T01:00:43.310Z,29.77
2024-01-11T01:03:11.090Z,29.27
2024-01-11T01:05:40.368Z,29.20
2024-01-11T01:08:08.234Z,30.87
2024-01-11T01:10:36.053Z,30.37
2024-01-11T01:13:03.993Z,30.33
2024-01-11T01:15:31.796Z,27.60
2024-01-11T01:17:59.954Z,30.47
2024-01-11T01:20:28.774Z,30.47
2024-01-11T01:22:58.078Z,32.27
2024-01-11T01:25:26.357Z,35.40
2024-01-11T01:27:54.311Z,29.13
2024-01-11T01:30:22.459Z,29.40
2024-01-11T01:32:50.384Z,29.20
2024-01-11T01:35:18.285Z,28.63
2024-01-11T01:37:46.233Z,27.47
2024-01-11T01:40:15.561Z,27.73
2024-01-11T01:42:44.933Z,30.13
2024-01-11T01:45:13.215Z,28.30
2024-01-11T01:47:43.298Z,31.53
2024-01-11T01:50:13.001Z,31.40
2024-01-11T01:52:44.404Z,29.83
2024-01-11T01:55:14.276Z,30.83
2024-01-11T01:57:45.797Z,29.40
2024-01-11T02:00:14.543Z,31.10
2024-01-11T02:02:45.187Z,31.73
2024-01-11T02:05:14.850Z,29.47
2024-01-11T02:07:42.965Z,27.57
2024-01-11T02:10:11.003Z,31.47
2024-01-11T02:12:39.102Z,30.30
2024-01-11T02:15:09.035Z,29.90
2024-01-11T02:17:37.073Z,31.07
2024-01-11T02:20:05.553Z,28.83
2024-01-11T02:22:37.635Z,29.57
2024-01-11T02:25:07.476Z,28.67
2024-01-11T02:27:47.691Z,28.80
2024-01-11T02:30:16.468Z,27.87
2024-01-11T02:32:47.349Z,27.47
2024-01-11T02:35:16.472Z,28.03
2024-01-11T02:37:44.787Z,28.40
2024-01-11T02:40:16.034Z,29.27
2024-01-11T02:42:43.951Z,28.23
2024-01-11T02:45:11.861Z,28.37
2024-01-11T02:47:39.970Z,29.13
2024-01-11T02:50:08.988Z,30.37
2024-01-11T02:52:37.069Z,29.10
2024-01-11T02:55:05.225Z,27.00
2024-01-11T02:57:34.345Z,27.70
2024-01-11T03:00:02.125Z,26.23
2024-01-11T03:02:30.228Z,26.73
2024-01-11T03:04:58.111Z,26.80
2024-01-11T03:07:25.889Z,28.07
2024-01-11T03:09:54.533Z,27.23
2024-01-11T03:12:22.397Z,29.03
2024-01-11T03:14:51.575Z,30.90
2024-01-11T03:17:19.618Z,27.93
2024-01-11T03:19:47.536Z,26.43
2024-01-11T03:22:15.909Z,24.83
2024-01-11T03:24:43.737Z,26.00
2024-01-11T03:27:11.569Z,27.43
2024-01-11T03:29:39.485Z,26.67
2024-01-11T03:32:08.988Z,25.93
2024-01-11T03:34:36.927Z,26.07
2024-01-11T03:37:04.939Z,26.60
2024-01-11T03:39:33.094Z,25.80
2024-01-11T03:42:00.892Z,27.80
2024-01-11T03:44:28.793Z,25.60
2024-01-11T03:46:56.597Z,27.80
2024-01-11T03:49:25.864Z,26.63
2024-01-11T03:51:53.641Z,27.20
2024-01-11T03:54:21.480Z,25.70
2024-01-11T03:56:49.281Z,25.10
2024-01-11T03:59:17.818Z,26.33
2024-01-11T04:01:45.699Z,26.90
2024-01-11T04:04:14.151Z,25.97
2024-01-11T04:06:43.286Z,26.33
2024-01-11T04:09:11.171Z,26.27
2024-01-11T04:11:39.093Z,26.27
2024-01-11T04:14:07.420Z,25.17
2024-01-11T04:16:35.289Z,26.63
2024-01-11T04:19:05.284Z,25.60
2024-01-11T04:21:33.148Z,26.33
2024-01-11T04:24:02.481Z,25.97
2024-01-11T04:26:30.303Z,27.30
2024-01-11T04:29:00.492Z,26.37
2024-01-11T04:31:28.795Z,26.23
2024-01-11T04:33:57.368Z,26.90
2024-01-11T04:36:25.432Z,25.20
2024-01-11T04:38:53.166Z,25.30
2024-01-11T04:41:22.521Z,25.83
2024-01-11T04:43:50.391Z,26.63
2024-01-11T04:46:19.012Z,26.07
2024-01-11T04:48:47.267Z,23.63
2024-01-11T04:51:15.882Z,25.00
2024-01-11T04:53:44.470Z,25.10
2024-01-11T04:56:13.463Z,24.43
2024-01-11T04:58:44.057Z,22.77
2024-01-11T05:01:14.932Z,23.53
2024-01-11T05:03:43.230Z,22.43
2024-01-11T05:06:16.749Z,22.63
2024-01-11T05:08:45.280Z,22.73
2024-01-11T05:11:18.327Z,24.43
2024-01-11T05:13:49.413Z,23.30
2024-01-11T05:16:21.893Z,25.50
2024-01-11T05:18:50.056Z,23.70
2024-01-11T05:21:17.987Z,22.97
2024-01-11T05:23:45.809Z,25.43
2024-01-11T05:26:14.655Z,25.80
2024-01-11T05:28:42.548Z,26.93
2024-01-11T05:31:12.821Z,25.77
2024-01-11T05:33:41.118Z,24.73
2024-01-11T05:36:09.693Z,23.50
2024-01-11T05:38:37.923Z,24.40
2024-01-11T05:41:05.871Z,25.00
2024-01-11T05:43:33.814Z,25.57
2024-01-11T05:46:01.799Z,25.20
2024-01-11T05:48:31.088Z,22.87
2024-01-11T05:50:58.906Z,21.90
2024-01-11T05:53:28.477Z,22.07
2024-01-11T05:55:56.474Z,26.00
2024-01-11T05:58:24.420Z,23.30
2024-01-11T06:00:52.356Z,22.30
2024-01-11T06:03:20.302Z,22.67
2024-01-11T06:05:49.775Z,23.80
2024-01-11T06:08:18.037Z,22.63
2024-01-11T06:10:45.870Z,22.70
2024-01-11T06:13:13.738Z,22.53
2024-01-11T06:15:41.705Z,22.20
2024-01-11T06:18:10.217Z,19.37
2024-01-11T06:20:38.125Z,19.47
2024-01-11T06:23:07.589Z,20.20
2024-01-11T06:25:35.808Z,21.90
2024-01-11T06:28:07.717Z,18.33
2024-01-11T06:30:35.546Z,20.40
2024-01-11T06:33:03.568Z,20.70
2024-01-11T06:35:32.225Z,19.50
2024-01-11T06:38:00.082Z,20.43
2024-01-11T06:40:29.243Z,22.73
2024-01-11T06:42:56.742Z,19.57
2024-01-11T06:45:24.593Z,21.00
2024-01-11T06:47:52.672Z,19.77
2024-01-11T06:50:20.666Z,19.43
2024-01-11T06:52:48.603Z,19.53
2024-01-11T06:55:16.957Z,23.57
2024-01-11T06:57:49.171Z,22.00
2024-01-11T07:00:17.257Z,22.93
2024-01-11T07:02:45.162Z,21.97
2024-01-11T07:05:13.510Z,24.20
2024-01-11T07:07:41.520Z,24.70
2024-01-11T07:10:10.243Z,24.67
2024-01-11T07:12:38.888Z,25.60
2024-01-11T07:15:09.292Z,23.30
2024-01-11T07:17:37.386Z,24.00
2024-01-11T07:20:06.082Z,25.10
2024-01-11T07:22:33.929Z,23.77
2024-01-11T07:25:01.866Z,25.13
2024-01-11T07:27:29.976Z,27.63
2024-01-11T07:29:57.741Z,24.60
2024-01-11T07:32:27.964Z,24.53
2024-01-11T07:34:55.808Z,23.87
2024-01-11T07:37:23.620Z,23.37
2024-01-11T07:39:51.474Z,22.97
2024-01-11T07:42:20.234Z,21.83
2024-01-11T07:44:48.145Z,22.17
2024-01-11T07:47:16.090Z,20.87
2024-01-11T07:49:45.381Z,24.23
2024-01-11T07:52:13.583Z,24.00
2024-01-11T07:54:41.461Z,25.03
2024-01-11T07:57:09.542Z,23.40
2024-01-11T07:59:38.570Z,22.40
2024-01-11T08:02:07.100Z,26.27
2024-01-11T08:04:35.045Z,25.60
2024-01-11T08:07:04.451Z,28.83
2024-01-11T08:09:32.319Z,27.07
2024-01-11T08:12:00.307Z,25.27
2024-01-11T08:14:28.252Z,26.57
2024-01-11T08:16:56.075Z,26.07
2024-01-11T08:19:24.156Z,27.83
2024-01-11T08:21:52.182Z,25.60
2024-01-11T08:24:22.560Z,27.20
2024-01-11T08:26:50.601Z,25.70
2024-01-11T08:29:20.193Z,23.77
2024-01-11T08:31:48.463Z,24.37
2024-01-11T08:34:16.402Z,24.80
2024-01-11T08:36:44.439Z,22.43
2024-01-11T08:39:13.447Z,24.53
2024-01-11T08:41:43.084Z,28.87
2024-01-11T08:44:11.678Z,28.07
2024-01-11T08:46:39.553Z,28.90
2024-01-11T08:49:07.796Z,26.77
2024-01-11T08:51:35.574Z,28.60
2024-01-11T08:54:03.421Z,26.33
2024-01-11T08:56:31.255Z,26.67
2024-01-11T08:59:00.591Z,28.90
2024-01-11T09:01:28.436Z,29.10
2024-01-11T09:03:56.394Z,30.07
2024-01-11T09:06:23.608Z,31.40
2024-01-11T09:08:51.702Z,29.90
2024-01-11T09:11:19.747Z,30.93
2024-01-11T09:13:47.765Z,31.80
2024-01-11T09:16:18.834Z,32.20
2024-01-11T09:18:48.282Z,31.87
2024-01-11T09:21:16.125Z,35.07
2024-01-11T09:23:44.281Z,34.23
2024-01-11T09:26:12.352Z,33.20
2024-01-11T09:28:40.110Z,34.33
2024-01-11T09:31:08.142Z,32.20
2024-01-11T09:33:37.644Z,32.27
2024-01-11T09:36:06.516Z,33.40
2024-01-11T09:38:35.012Z,34.40
2024-01-11T09:41:11.918Z,35.37
2024-01-11T09:43:43.151Z,35.73
2024-01-11T09:46:13.228Z,33.93
2024-01-11T09:48:46.019Z,35.97
2024-01-11T09:51:14.419Z,30.00
2024-01-11T09:53:44.294Z,32.87
2024-01-11T09:56:13.128Z,32.50
2024-01-11T09:58:46.631Z,31.90
2024-01-11T10:01:15.713Z,32.60
2024-01-11T10:03:47.265Z,33.40
2024-01-11T10:06:17.608Z,33.03
2024-01-11T10:08:46.188Z,33.63
2024-01-11T10:11:14.152Z,33.10
2024-01-11T10:13:42.837Z,31.87
2024-01-11T10:16:14.848Z,30.00
2024-01-11T10:18:44.774Z,33.07
2024-01-11T10:21:12.948Z,30.40
2024-01-11T10:23:41.143Z,30.10
2024-01-11T10:26:09.483Z,30.40
2024-01-11T10:28:38.871Z,32.10
2024-01-11T10:31:08.119Z,30.13
2024-01-11T10:33:36.800Z,28.33
2024-01-11T10:36:08.698Z,27.23
2024-01-11T10:38:39.388Z,28.90
2024-01-11T10:41:09.296Z,28.20
2024-01-11T10:43:39.392Z,29.17
2024-01-11T10:46:09.059Z,32.00
2024-01-11T10:48:41.101Z,29.23
2024-01-11T10:51:13.685Z,26.53
2024-01-11T10:53:47.397Z,26.20
2024-01-11T10:56:17.155Z,28.53
2024-01-11T10:58:47.522Z,28.20
2024-01-11T11:01:16.065Z,28.50
2024-01-11T11:03:46.933Z,26.93
2024-01-11T11:06:17.451Z,25.40
2024-01-11T11:08:46.959Z,23.97
2024-01-11T11:11:17.312Z,22.13
2024-01-11T11:13:49.656Z,22.80
2024-01-11T11:16:17.686Z,25.20
2024-01-11T11:18:45.910Z,26.40
2024-01-11T11:21:13.836Z,26.07
2024-01-11T11:23:43.259Z,26.87
2024-01-11T11:26:16.820Z,24.13
2024-01-11T11:28:44.831Z,22.37
2024-01-11T11:31:13.662Z,23.60
2024-01-11T11:33:43.362Z,23.43
2024-01-11T11:36:15.758Z,24.97
2024-01-11T11:38:45.145Z,21.10
2024-01-11T11:41:14.277Z,24.27
2024-01-11T11:43:42.454Z,23.83
2024-01-11T11:46:10.687Z,22.17
2024-01-11T11:48:53.517Z,26.30
2024-01-11T11:51:24.682Z,23.97
2024-01-11T11:53:56.269Z,23.03
2024-01-11T11:56:25.447Z,22.53
2024-01-11T11:58:56.028Z,24.17
2024-01-11T12:01:24.710Z,24.30
2024-01-11T12:03:52.963Z,23.80
2024-01-11T12:06:24.093Z,25.93
2024-01-11T12:08:58.861Z,29.30
2024-01-11T12:11:28.076Z,25.17
2024-01-11T12:13:58.246Z,26.77
2024-01-11T12:16:26.320Z,24.80
2024-01-11T12:18:55.132Z,23.33
2024-01-11T12:21:23.086Z,26.73
2024-01-11T12:23:51.134Z,22.80
2024-01-11T12:26:23.993Z,22.30
2024-01-11T12:28:53.041Z,19.47
2024-01-11T12:31:21.550Z,18.10
2024-01-11T12:33:50.344Z,17.77
2024-01-11T12:36:18.579Z,19.10
2024-01-11T12:38:52.853Z,20.00
2024-01-11T12:41:25.167Z,18.53
2024-01-11T12:43:53.671Z,16.73
2024-01-11T12:46:21.629Z,16.30
2024-01-11T12:48:51.063Z,17.03
2024-01-11T12:51:21.768Z,16.17
2024-01-11T12:53:51.093Z,15.53
2024-01-11T12:56:20.588Z,15.23
2024-01-11T12:58:49.956Z,16.77
2024-01-11T13:01:19.212Z,15.60
2024-01-11T13:03:48.651Z,17.17
2024-01-11T13:06:18.453Z,16.83
2024-01-11T13:08:46.688Z,15.77
2024-01-11T13:11:17.578Z,15.03
2024-01-11T13:13:47.859Z,16.10
2024-01-11T13:16:19.868Z,14.50
2024-01-11T13:18:47.862Z,14.37
2024-01-11T13:21:15.983Z,13.70
2024-01-11T13:23:44.293Z,13.20
2024-01-11T13:26:12.337Z,12.83
2024-01-11T13:28:40.227Z,12.00
2024-01-11T13:31:10.983Z,11.03
2024-01-11T13:33:41.536Z,12.10
2024-01-11T13:36:09.988Z,10.50
2024-01-11T13:38:38.321Z,10.93
2024-01-11T13:41:09.121Z,10.87
2024-01-11T13:43:37.391Z,10.90
2024-01-11T13:46:06.180Z,9.67
2024-01-11T13:48:34.797Z,9.60
2024-01-11T13:51:05.454Z,10.10
2024-01-11T13:53:33.718Z,9.20
2024-01-11T13:56:02.117Z,8.43
2024-01-11T13:58:30.118Z,9.73
2024-01-11T14:00:58.721Z,8.40
2024-01-11T14:03:27.125Z,8.67
2024-01-11T14:05:55.310Z,9.03
2024-01-11T14:08:24.637Z,8.67
2024-01-11T14:10:52.730Z,7.83
2024-01-11T14:13:20.520Z,8.93
2024-01-11T14:15:49.245Z,8.60
2024-01-11T14:18:17.302Z,7.67
2024-01-11T14:20:45.510Z,10.90
2024-01-11T14:23:13.564Z,8.33
2024-01-11T14:25:43.607Z,7.50
2024-01-11T14:28:11.560Z,8.00
2024-01-11T14:30:39.438Z,8.63
2024-01-11T14:33:07.456Z,7.90
2024-01-11T14:35:35.500Z,7.30
2024-01-11T14:38:05.324Z,7.00
2024-01-11T14:40:33.327Z,5.70
2024-01-11T14:43:02.533Z,5.90
2024-01-11T14:45:30.600Z,6.63
2024-01-11T14:47:59.749Z,6.13
2024-01-11T14:50:27.973Z,5.43
2024-01-11T14:52:55.870Z,5.37
2024-01-11T14:55:23.695Z,6.17
2024-01-11T14:57:54.187Z,5.40
2024-01-11T15:00:25.199Z,7.77
2024-01-11T15:02:53.280Z,6.90
2024-01-11T15:05:21.139Z,5.60
2024-01-11T15:07:48.981Z,6.93
2024-01-11T15:10:16.911Z,6.80
2024-01-11T15:12:44.780Z,6.20
2024-01-11T15:15:12.608Z,5.70
2024-01-11T15:17:41.941Z,5.80
2024-01-11T15:20:11.092Z,5.90
2024-01-11T15:22:39.182Z,5.90
2024-01-11T15:25:08.047Z,4.90
2024-01-11T15:27:36.624Z,4.57
2024-01-11T15:30:05.254Z,4.73
2024-01-11T15:32:33.454Z,5.10
2024-01-11T15:35:04.821Z,5.63
2024-01-11T15:37:34.253Z,4.67
2024-01-11T15:40:03.176Z,6.07
2024-01-11T15:42:31.117Z,6.23
2024-01-11T15:44:59.857Z,5.60
2024-01-11T15:47:28.010Z,5.87
2024-01-11T15:49:56.099Z,6.20
2024-01-11T15:52:25.475Z,5.70
2024-01-11T15:54:53.309Z,6.47
2024-01-11T15:57:21.466Z,5.90
2024-01-11T15:59:50.114Z,5.80
2024-01-11T16:02:19.262Z,6.50
2024-01-11T16:04:49.749Z,6.23
2024-01-11T16:07:20.523Z,5.80
2024-01-11T16:09:50.978Z,5.90
2024-01-11T16:12:18.858Z,6.30
2024-01-11T16:14:48.633Z,5.50
2024-01-11T16:17:16.791Z,6.60
2024-01-11T16:19:44.791Z,6.40
2024-01-11T16:22:12.912Z,7.27
2024-01-11T16:24:40.716Z,8.83
2024-01-11T16:27:11.913Z,8.63
2024-01-11T16:29:41.839Z,9.10
2024-01-11T16:32:10.186Z,9.30
2024-01-11T16:34:39.889Z,8.60
2024-01-11T16:37:08.105Z,7.23
2024-01-11T16:39:40.438Z,7.00
2024-01-11T16:42:10.552Z,6.97
2024-01-11T16:44:38.848Z,7.00
2024-01-11T16:47:07.040Z,8.50
2024-01-11T16:49:34.874Z,7.70
2024-01-11T16:52:05.581Z,6.90
2024-01-11T16:54:33.506Z,6.47
2024-01-11T16:57:01.310Z,7.50
2024-01-11T16:59:30.498Z,7.73
2024-01-11T17:01:58.539Z,7.10
2024-01-11T17:04:26.635Z,8.00
2024-01-11T17:06:54.535Z,7.97
2024-01-11T17:09:22.407Z,8.53
2024-01-11T17:11:50.249Z,8.70
2024-01-11T17:16:47.146Z,8.40
2024-01-11T17:19:15.056Z,8.33
2024-01-11T17:21:42.815Z,8.87
2024-01-11T17:24:10.605Z,10.37
2024-01-11T17:26:39.156Z,8.73
2024-01-11T17:29:06.982Z,8.27
2024-01-11T17:31:37.532Z,8.40
2024-01-11T17:34:06.695Z,8.77
2024-01-11T17:36:34.524Z,9.27
2024-01-11T17:39:03.302Z,8.97
2024-01-11T17:41:37.560Z,8.80
2024-01-11T17:44:05.862Z,8.80
2024-01-11T17:46:34.356Z,8.10
2024-01-11T17:49:03.183Z,9.57
2024-01-11T17:51:33.254Z,8.60
2024-01-11T17:54:01.013Z,9.43
2024-01-11T17:56:28.808Z,10.30
2024-01-11T17:58:57.341Z,10.73
2024-01-11T18:01:27.073Z,9.23
2024-01-11T18:03:55.295Z,10.20
2024-01-11T18:06:23.166Z,11.00
2024-01-11T18:08:52.440Z,10.87
2024-01-11T18:11:20.428Z,11.30
2024-01-11T18:13:48.389Z,13.20
2024-01-11T18:16:16.404Z,11.13
2024-01-11T18:18:44.868Z,10.70
2024-01-11T18:21:12.822Z,11.27
2024-01-11T18:23:40.853Z,11.17
2024-01-11T18:26:10.058Z,11.27
2024-01-11T18:28:37.854Z,10.27
2024-01-11T18:31:05.896Z,10.07
2024-01-11T18:33:33.851Z,9.50
2024-01-11T18:36:02.953Z,10.03
2024-01-11T18:38:30.858Z,10.67
2024-01-11T18:40:58.844Z,9.83
2024-01-11T18:43:27.988Z,9.83
2024-01-11T18:45:55.784Z,10.07
2024-01-11T18:48:23.786Z,10.93
2024-01-11T18:50:52.052Z,11.63
2024-01-11T18:53:20.811Z,12.57
2024-01-11T18:55:48.712Z,12.60
2024-01-11T18:58:18.508Z,13.00
2024-01-11T19:00:47.744Z,14.60
2024-01-11T19:03:16.318Z,13.70
2024-01-11T19:05:45.075Z,11.70
2024-01-11T19:08:13.120Z,13.47
2024-01-11T19:10:40.989Z,12.50
2024-01-11T19:13:08.828Z,13.67
2024-01-11T19:15:37.521Z,13.93
2024-01-11T19:18:09.811Z,14.23
2024-01-11T19:20:38.220Z,11.90
2024-01-11T19:23:06.293Z,14.20
2024-01-11T19:25:35.008Z,14.23
2024-01-11T19:28:03.186Z,15.17
2024-01-11T19:30:32.591Z,15.97
2024-01-11T19:33:03.719Z,13.97
2024-01-11T19:35:33.272Z,14.40
2024-01-11T19:38:01.237Z,15.50
2024-01-11T19:40:29.028Z,17.07
2024-01-11T19:42:56.878Z,15.37
2024-01-11T19:45:24.725Z,15.10
2024-01-11T19:47:52.628Z,14.73
2024-01-11T19:50:20.513Z,13.30
2024-01-11T19:52:51.569Z,14.10
2024-01-11T19:55:20.560Z,14.40
2024-01-11T19:57:48.379Z,13.97
2024-01-11T20:00:17.221Z,16.43
2024-01-11T20:02:44.997Z,13.60
2024-01-11T20:05:13.436Z,15.10
2024-01-11T20:07:41.385Z,15.67
2024-01-11T20:10:11.335Z,16.20
2024-01-11T20:12:39.506Z,14.57
2024-01-11T20:15:10.163Z,13.90
2024-01-11T20:17:38.108Z,14.77
2024-01-11T20:20:09.339Z,14.03
2024-01-11T20:22:37.304Z,14.73
2024-01-11T20:25:05.932Z,15.00
2024-01-11T20:27:36.288Z,17.07
2024-01-11T20:30:04.885Z,15.40
2024-01-11T20:32:33.498Z,16.37
2024-01-11T20:35:01.580Z,14.43
2024-01-11T20:37:29.373Z,15.60
2024-01-11T20:39:56.200Z,17.33
2024-01-11T20:42:23.947Z,16.87
2024-01-11T20:44:53.165Z,16.47
2024-01-11T20:47:23.451Z,15.30
2024-01-11T20:49:51.706Z,14.73
2024-01-11T20:52:19.816Z,15.30
2024-01-11T20:54:49.278Z,15.43
2024-01-11T20:57:18.523Z,14.50
2024-01-11T20:59:46.315Z,17.20
2024-01-11T21:02:16.056Z,13.53
2024-01-11T21:04:43.810Z,14.50
2024-01-11T21:07:11.675Z,12.20
2024-01-11T21:09:39.486Z,12.80
2024-01-11T21:12:07.758Z,13.63
2024-01-11T21:14:35.844Z,15.33
2024-01-11T21:17:04.290Z,14.80
2024-01-11T21:19:33.665Z,14.43
2024-01-11T21:22:01.525Z,13.40
2024-01-11T21:24:29.280Z,14.70
2024-01-11T21:26:57.176Z,12.60
2024-01-11T21:29:25.091Z,14.00
2024-01-11T21:31:53.029Z,14.77
2024-01-11T21:34:20.857Z,13.70
2024-01-11T21:36:50.031Z,13.70
2024-01-11T21:39:18.117Z,14.87
2024-01-11T21:41:45.926Z,11.87
2024-01-11T21:44:13.973Z,12.50
2024-01-11T21:46:42.258Z,11.90
2024-01-11T21:49:10.199Z,12.23
2024-01-11T21:51:38.884Z,11.70
2024-01-11T21:54:08.594Z,12.43
2024-01-11T21:56:36.401Z,12.17
2024-01-11T21:59:04.349Z,11.50
2024-01-11T22:01:33.069Z,11.80
2024-01-11T22:04:01.154Z,12.17
2024-01-11T22:06:29.115Z,11.07
2024-01-11T22:08:59.248Z,9.90
2024-01-11T22:11:30.411Z,10.80
2024-01-11T22:13:59.002Z,11.47
2024-01-11T22:16:27.049Z,10.00
2024-01-11T22:18:55.223Z,11.20
2024-01-11T22:21:23.305Z,11.70
2024-01-11T22:23:51.246Z,11.67
2024-01-11T22:26:21.874Z,11.43
2024-01-11T22:28:50.939Z,11.10
2024-01-11T22:31:19.306Z,13.37
2024-01-11T22:33:47.455Z,12.93
2024-01-11T22:36:15.440Z,12.53
2024-01-11T22:38:43.332Z,15.07
2024-01-11T22:41:11.426Z,11.97
2024-01-11T22:43:39.349Z,11.10
2024-01-11T22:46:08.665Z,10.87
2024-01-11T22:48:37.681Z,11.10
2024-01-11T22:51:06.091Z,11.97
2024-01-11T22:53:34.026Z,11.70
2024-01-11T22:56:01.870Z,10.20
2024-01-11T22:58:30.014Z,13.83
2024-01-11T23:00:57.843Z,13.20
2024-01-11T23:03:27.410Z,17.57
2024-01-11T23:05:55.263Z,15.63
2024-01-11T23:08:23.132Z,17.47
2024-01-11T23:10:50.924Z,17.87
2024-01-11T23:13:18.755Z,17.27
2024-01-11T23:15:46.511Z,15.27
2024-01-11T23:18:14.735Z,17.60
2024-01-11T23:20:44.055Z,14.17
2024-01-11T23:23:11.936Z,15.90
2024-01-11T23:25:39.781Z,16.40
2024-01-11T23:28:08.341Z,15.70
2024-01-11T23:30:36.158Z,16.30
2024-01-11T23:33:04.198Z,17.30
2024-01-11T23:35:32.009Z,15.00
2024-01-11T23:38:01.181Z,15.80
2024-01-11T23:40:28.954Z,13.93
2024-01-11T23:42:56.734Z,12.80
2024-01-11T23:45:24.844Z,11.50
2024-01-11T23:47:52.809Z,12.67
2024-01-11T23:50:20.965Z,14.40
2024-01-11T23:52:48.897Z,14.03
2024-01-11T23:55:18.088Z,15.60
2024-01-11T23:57:46.271Z,14.60
